sensor_id;sensor_type;location;lat;lon;timestamp;pressure;altitude;pressure_sealevel;temperature;humidity
61039;BME280;46919;45.816;3.104;2023-03-31T00:01:32;97294.47;;;12.56;61.98
61039;BME280;46919;45.816;3.104;2023-03-31T00:03:59;97298.25;;;12.55;62.14
61039;BME280;46919;45.816;3.104;2023-03-31T00:06:33;97293.59;;;12.50;62.30
61039;BME280;46919;45.816;3.104;2023-03-31T00:09:11;97279.66;;;12.41;62.52
61039;BME280;46919;45.816;3.104;2023-03-31T00:11:38;97284.25;;;12.41;62.28
61039;BME280;46919;45.816;3.104;2023-03-31T00:14:04;97274.72;;;12.38;62.13
61039;BME280;46919;45.816;3.104;2023-03-31T00:16:35;97284.94;;;12.31;62.79
61039;BME280;46919;45.816;3.104;2023-03-31T00:19:01;97276.91;;;12.19;62.93
61039;BME280;46919;45.816;3.104;2023-03-31T00:21:27;97270.63;;;12.13;63.50
61039;BME280;46919;45.816;3.104;2023-03-31T00:26:26;97252.53;;;12.19;63.24
61039;BME280;46919;45.816;3.104;2023-03-31T00:28:53;97250.66;;;12.20;63.28
61039;BME280;46919;45.816;3.104;2023-03-31T00:31:19;97238.50;;;12.22;63.23
61039;BME280;46919;45.816;3.104;2023-03-31T00:33:45;97240.13;;;12.23;62.85
61039;BME280;46919;45.816;3.104;2023-03-31T00:36:10;97237.19;;;12.25;63.24
61039;BME280;46919;45.816;3.104;2023-03-31T00:38:35;97229.81;;;12.20;63.08
61039;BME280;46919;45.816;3.104;2023-03-31T00:41:02;97214.88;;;12.18;63.06
61039;BME280;46919;45.816;3.104;2023-03-31T00:43:33;97189.63;;;12.12;63.71
61039;BME280;46919;45.816;3.104;2023-03-31T00:46:08;97182.25;;;12.07;63.60
61039;BME280;46919;45.816;3.104;2023-03-31T00:48:45;97191.44;;;12.06;63.64
61039;BME280;46919;45.816;3.104;2023-03-31T00:51:11;97183.25;;;12.01;63.54
61039;BME280;46919;45.816;3.104;2023-03-31T00:53:37;97165.34;;;12.00;63.37
61039;BME280;46919;45.816;3.104;2023-03-31T00:56:07;97159.94;;;12.00;63.62
61039;BME280;46919;45.816;3.104;2023-03-31T00:58:33;97162.75;;;11.88;63.77
61039;BME280;46919;45.816;3.104;2023-03-31T01:01:00;97149.06;;;11.78;64.41
61039;BME280;46919;45.816;3.104;2023-03-31T01:03:28;97150.31;;;11.70;64.88
61039;BME280;46919;45.816;3.104;2023-03-31T01:06:01;97149.19;;;11.66;65.23
61039;BME280;46919;45.816;3.104;2023-03-31T01:08:29;97159.72;;;11.63;65.06
61039;BME280;46919;45.816;3.104;2023-03-31T01:10:59;97150.81;;;11.67;64.90
61039;BME280;46919;45.816;3.104;2023-03-31T01:13:26;97115.81;;;11.60;65.29
61039;BME280;46919;45.816;3.104;2023-03-31T01:15:53;97142.63;;;11.62;65.54
61039;BME280;46919;45.816;3.104;2023-03-31T01:18:19;97140.19;;;11.83;64.91
61039;BME280;46919;45.816;3.104;2023-03-31T01:23:48;97128.06;;;12.07;63.98
61039;BME280;46919;45.816;3.104;2023-03-31T01:29:16;97117.25;;;12.07;63.89
61039;BME280;46919;45.816;3.104;2023-03-31T01:40:54;97088.91;;;13.50;61.61
61039;BME280;46919;45.816;3.104;2023-03-31T01:43:46;97074.00;;;14.41;58.82
61039;BME280;46919;45.816;3.104;2023-03-31T01:49:06;97081.09;;;15.30;55.92
61039;BME280;46919;45.816;3.104;2023-03-31T01:52:00;97102.56;;;15.47;55.40
61039;BME280;46919;45.816;3.104;2023-03-31T01:54:38;97074.44;;;15.67;54.76
61039;BME280;46919;45.816;3.104;2023-03-31T01:57:21;97091.06;;;15.81;54.27
61039;BME280;46919;45.816;3.104;2023-03-31T01:59:57;97051.50;;;15.93;53.82
61039;BME280;46919;45.816;3.104;2023-03-31T02:02:30;97081.44;;;16.04;53.56
61039;BME280;46919;45.816;3.104;2023-03-31T02:05:11;97059.06;;;16.02;53.78
61039;BME280;46919;45.816;3.104;2023-03-31T02:07:54;97083.03;;;16.10;53.39
61039;BME280;46919;45.816;3.104;2023-03-31T02:10:23;97062.53;;;16.23;52.91
61039;BME280;46919;45.816;3.104;2023-03-31T02:12:50;97060.91;;;16.17;53.16
61039;BME280;46919;45.816;3.104;2023-03-31T02:15:24;97059.28;;;16.16;52.94
61039;BME280;46919;45.816;3.104;2023-03-31T02:17:54;97075.69;;;16.05;53.74
61039;BME280;46919;45.816;3.104;2023-03-31T02:20:23;97048.44;;;16.05;53.42
61039;BME280;46919;45.816;3.104;2023-03-31T02:22:53;97052.88;;;15.91;54.31
61039;BME280;46919;45.816;3.104;2023-03-31T02:25:22;97051.81;;;15.87;54.03
61039;BME280;46919;45.816;3.104;2023-03-31T02:27:55;97054.56;;;15.82;54.39
61039;BME280;46919;45.816;3.104;2023-03-31T02:30:23;97042.03;;;15.70;55.05
61039;BME280;46919;45.816;3.104;2023-03-31T02:32:51;97038.00;;;15.57;55.36
61039;BME280;46919;45.816;3.104;2023-03-31T02:35:18;97060.59;;;15.58;55.58
61039;BME280;46919;45.816;3.104;2023-03-31T02:37:46;97097.38;;;15.55;55.88
61039;BME280;46919;45.816;3.104;2023-03-31T02:40:19;97078.31;;;15.55;55.88
61039;BME280;46919;45.816;3.104;2023-03-31T02:42:46;97063.34;;;15.48;56.20
61039;BME280;46919;45.816;3.104;2023-03-31T02:45:38;97044.34;;;15.32;57.04
61039;BME280;46919;45.816;3.104;2023-03-31T02:48:05;97071.56;;;15.27;57.23
61039;BME280;46919;45.816;3.104;2023-03-31T02:58:58;97045.47;;;15.06;57.73
61039;BME280;46919;45.816;3.104;2023-03-31T03:10:39;97047.13;;;14.81;57.22
61039;BME280;46919;45.816;3.104;2023-03-31T03:13:27;97076.50;;;14.79;57.65
61039;BME280;46919;45.816;3.104;2023-03-31T03:15:59;97036.53;;;14.79;57.50
61039;BME280;46919;45.816;3.104;2023-03-31T03:18:26;97035.72;;;14.74;57.45
61039;BME280;46919;45.816;3.104;2023-03-31T03:20:51;97065.38;;;14.80;56.56
61039;BME280;46919;45.816;3.104;2023-03-31T03:23:17;97050.94;;;14.70;57.22
61039;BME280;46919;45.816;3.104;2023-03-31T03:25:43;97055.31;;;14.71;57.16
61039;BME280;46919;45.816;3.104;2023-03-31T03:28:09;97073.78;;;14.63;56.72
61039;BME280;46919;45.816;3.104;2023-03-31T03:30:35;97083.59;;;14.70;56.20
61039;BME280;46919;45.816;3.104;2023-03-31T03:33:00;97065.59;;;14.58;56.38
61039;BME280;46919;45.816;3.104;2023-03-31T03:35:27;97062.09;;;14.68;56.33
61039;BME280;46919;45.816;3.104;2023-03-31T03:37:52;97079.19;;;14.53;56.74
61039;BME280;46919;45.816;3.104;2023-03-31T03:40:18;97085.44;;;14.54;55.72
61039;BME280;46919;45.816;3.104;2023-03-31T03:42:43;97074.28;;;14.55;55.16
61039;BME280;46919;45.816;3.104;2023-03-31T03:45:09;97079.72;;;14.50;53.89
61039;BME280;46919;45.816;3.104;2023-03-31T03:47:35;97076.19;;;14.44;53.22
61039;BME280;46919;45.816;3.104;2023-03-31T03:50:01;97082.97;;;14.31;52.82
61039;BME280;46919;45.816;3.104;2023-03-31T03:52:27;97081.88;;;14.27;53.08
61039;BME280;46919;45.816;3.104;2023-03-31T03:54:52;97094.09;;;14.25;53.21
61039;BME280;46919;45.816;3.104;2023-03-31T03:57:19;97113.38;;;14.18;53.74
61039;BME280;46919;45.816;3.104;2023-03-31T03:59:44;97106.88;;;14.24;53.05
61039;BME280;46919;45.816;3.104;2023-03-31T04:02:10;97115.25;;;14.18;52.96
61039;BME280;46919;45.816;3.104;2023-03-31T04:04:35;97112.81;;;14.16;52.30
61039;BME280;46919;45.816;3.104;2023-03-31T04:07:01;97097.28;;;14.11;51.66
61039;BME280;46919;45.816;3.104;2023-03-31T04:09:26;97112.53;;;14.12;50.60
61039;BME280;46919;45.816;3.104;2023-03-31T04:11:52;97097.28;;;14.11;50.30
61039;BME280;46919;45.816;3.104;2023-03-31T04:14:18;97093.25;;;14.14;50.19
61039;BME280;46919;45.816;3.104;2023-03-31T04:16:43;97083.72;;;14.11;50.59
61039;BME280;46919;45.816;3.104;2023-03-31T04:19:12;97109.28;;;14.10;48.95
61039;BME280;46919;45.816;3.104;2023-03-31T04:21:41;97115.22;;;14.07;48.26
61039;BME280;46919;45.816;3.104;2023-03-31T04:24:10;97117.41;;;14.10;48.17
61039;BME280;46919;45.816;3.104;2023-03-31T04:26:45;97124.13;;;13.92;49.21
61039;BME280;46919;45.816;3.104;2023-03-31T04:29:15;97112.97;;;13.84;50.23
61039;BME280;46919;45.816;3.104;2023-03-31T04:31:41;97115.94;;;13.82;50.56
61039;BME280;46919;45.816;3.104;2023-03-31T04:34:08;97124.91;;;13.83;50.69
61039;BME280;46919;45.816;3.104;2023-03-31T04:36:41;97117.00;;;13.81;51.24
61039;BME280;46919;45.816;3.104;2023-03-31T04:39:12;97118.06;;;13.70;51.59
61039;BME280;46919;45.816;3.104;2023-03-31T04:41:38;97129.69;;;13.65;52.06
61039;BME280;46919;45.816;3.104;2023-03-31T04:44:03;97143.09;;;13.77;52.48
61039;BME280;46919;45.816;3.104;2023-03-31T04:46:29;97142.25;;;13.76;52.22
61039;BME280;46919;45.816;3.104;2023-03-31T04:48:54;97134.88;;;13.67;51.94
61039;BME280;46919;45.816;3.104;2023-03-31T04:51:20;97161.97;;;13.56;52.03
61039;BME280;46919;45.816;3.104;2023-03-31T04:53:46;97148.13;;;13.53;51.42
61039;BME280;46919;45.816;3.104;2023-03-31T04:56:11;97123.94;;;13.51;50.73
61039;BME280;46919;45.816;3.104;2023-03-31T04:58:37;97173.63;;;13.52;48.91
61039;BME280;46919;45.816;3.104;2023-03-31T05:01:03;97180.47;;;13.59;48.11
61039;BME280;46919;45.816;3.104;2023-03-31T05:03:30;97183.44;;;13.58;47.67
61039;BME280;46919;45.816;3.104;2023-03-31T05:05:56;97167.41;;;13.56;47.75
61039;BME280;46919;45.816;3.104;2023-03-31T05:08:22;97169.50;;;13.49;47.63
61039;BME280;46919;45.816;3.104;2023-03-31T05:10:47;97167.56;;;13.45;47.71
61039;BME280;46919;45.816;3.104;2023-03-31T05:13:12;97169.47;;;13.39;47.77
61039;BME280;46919;45.816;3.104;2023-03-31T05:15:38;97150.66;;;13.32;47.66
61039;BME280;46919;45.816;3.104;2023-03-31T05:18:05;97155.84;;;13.34;47.90
61039;BME280;46919;45.816;3.104;2023-03-31T05:20:30;97161.28;;;13.34;47.40
61039;BME280;46919;45.816;3.104;2023-03-31T05:22:55;97162.09;;;13.34;47.36
61039;BME280;46919;45.816;3.104;2023-03-31T05:25:21;97175.34;;;13.31;47.31
61039;BME280;46919;45.816;3.104;2023-03-31T05:27:47;97148.47;;;13.29;47.43
61039;BME280;46919;45.816;3.104;2023-03-31T05:30:15;97167.72;;;13.28;47.69
61039;BME280;46919;45.816;3.104;2023-03-31T05:32:41;97173.94;;;13.23;47.93
61039;BME280;46919;45.816;3.104;2023-03-31T05:35:07;97167.59;;;13.12;48.35
61039;BME280;46919;45.816;3.104;2023-03-31T05:37:32;97172.47;;;13.10;49.04
61039;BME280;46919;45.816;3.104;2023-03-31T05:39:58;97179.78;;;13.10;49.77
61039;BME280;46919;45.816;3.104;2023-03-31T05:42:23;97181.69;;;13.09;51.14
61039;BME280;46919;45.816;3.104;2023-03-31T05:44:49;97187.63;;;13.06;51.75
61039;BME280;46919;45.816;3.104;2023-03-31T05:47:15;97190.25;;;12.96;52.21
61039;BME280;46919;45.816;3.104;2023-03-31T05:49:40;97182.38;;;12.94;53.17
61039;BME280;46919;45.816;3.104;2023-03-31T05:52:06;97180.47;;;12.95;53.10
61039;BME280;46919;45.816;3.104;2023-03-31T05:54:32;97188.91;;;12.98;52.64
61039;BME280;46919;45.816;3.104;2023-03-31T05:56:58;97186.41;;;12.92;52.96
61039;BME280;46919;45.816;3.104;2023-03-31T05:59:23;97196.63;;;12.84;52.78
61039;BME280;46919;45.816;3.104;2023-03-31T06:01:49;97183.06;;;12.84;52.21
61039;BME280;46919;45.816;3.104;2023-03-31T06:04:15;97184.69;;;12.80;52.08
61039;BME280;46919;45.816;3.104;2023-03-31T06:06:40;97204.41;;;12.76;52.23
61039;BME280;46919;45.816;3.104;2023-03-31T06:09:08;97193.38;;;12.82;51.17
61039;BME280;46919;45.816;3.104;2023-03-31T06:11:36;97191.72;;;12.81;50.84
61039;BME280;46919;45.816;3.104;2023-03-31T06:14:02;97192.19;;;12.73;51.04
61039;BME280;46919;45.816;3.104;2023-03-31T06:16:28;97189.97;;;12.70;50.92
61039;BME280;46919;45.816;3.104;2023-03-31T06:18:53;97182.34;;;12.67;51.05
61039;BME280;46919;45.816;3.104;2023-03-31T06:21:20;97181.28;;;12.68;50.74
61039;BME280;46919;45.816;3.104;2023-03-31T06:23:46;97182.09;;;12.68;50.67
61039;BME280;46919;45.816;3.104;2023-03-31T06:26:14;97149.81;;;12.67;50.65
61039;BME280;46919;45.816;3.104;2023-03-31T06:28:40;97176.38;;;12.65;50.93
61039;BME280;46919;45.816;3.104;2023-03-31T06:31:08;97179.59;;;12.62;51.08
61039;BME280;46919;45.816;3.104;2023-03-31T06:33:34;97185.56;;;12.64;51.08
61039;BME280;46919;45.816;3.104;2023-03-31T06:36:00;97167.19;;;12.66;51.08
61039;BME280;46919;45.816;3.104;2023-03-31T06:38:28;97177.53;;;12.69;51.38
61039;BME280;46919;45.816;3.104;2023-03-31T06:40:53;97183.50;;;12.71;51.59
61039;BME280;46919;45.816;3.104;2023-03-31T06:43:18;97187.84;;;12.72;52.04
61039;BME280;46919;45.816;3.104;2023-03-31T06:45:45;97188.38;;;12.69;52.33
61039;BME280;46919;45.816;3.104;2023-03-31T06:48:10;97220.00;;;12.63;52.69
61039;BME280;46919;45.816;3.104;2023-03-31T06:50:40;97210.31;;;12.67;52.13
61039;BME280;46919;45.816;3.104;2023-03-31T06:53:08;97235.31;;;12.75;52.00
61039;BME280;46919;45.816;3.104;2023-03-31T06:55:34;97238.41;;;12.83;50.90
61039;BME280;46919;45.816;3.104;2023-03-31T06:58:00;97220.22;;;12.84;51.17
61039;BME280;46919;45.816;3.104;2023-03-31T07:00:25;97208.56;;;12.83;50.97
61039;BME280;46919;45.816;3.104;2023-03-31T07:02:51;97211.28;;;12.83;50.89
61039;BME280;46919;45.816;3.104;2023-03-31T07:05:17;97223.81;;;12.90;50.95
61039;BME280;46919;45.816;3.104;2023-03-31T07:07:43;97217.63;;;12.94;50.98
61039;BME280;46919;45.816;3.104;2023-03-31T07:10:09;97217.94;;;12.98;51.12
61039;BME280;46919;45.816;3.104;2023-03-31T07:12:34;97210.09;;;13.01;51.20
61039;BME280;46919;45.816;3.104;2023-03-31T07:15:00;97229.13;;;13.07;51.12
61039;BME280;46919;45.816;3.104;2023-03-31T07:17:25;97244.06;;;13.09;50.57
61039;BME280;46919;45.816;3.104;2023-03-31T07:19:50;97225.63;;;13.11;50.82
61039;BME280;46919;45.816;3.104;2023-03-31T07:22:16;97213.19;;;13.15;50.46
61039;BME280;46919;45.816;3.104;2023-03-31T07:24:41;97211.03;;;13.17;50.58
61039;BME280;46919;45.816;3.104;2023-03-31T07:27:06;97226.50;;;13.17;50.79
61039;BME280;46919;45.816;3.104;2023-03-31T07:29:32;97231.41;;;13.20;50.18
61039;BME280;46919;45.816;3.104;2023-03-31T07:31:57;97257.19;;;13.22;50.09
61039;BME280;46919;45.816;3.104;2023-03-31T07:34:23;97232.84;;;13.28;49.48
61039;BME280;46919;45.816;3.104;2023-03-31T07:36:48;97251.66;;;13.34;50.11
61039;BME280;46919;45.816;3.104;2023-03-31T07:39:13;97245.66;;;13.32;49.97
61039;BME280;46919;45.816;3.104;2023-03-31T07:41:39;97243.28;;;13.41;50.06
61039;BME280;46919;45.816;3.104;2023-03-31T07:44:05;97250.09;;;13.44;50.14
61039;BME280;46919;45.816;3.104;2023-03-31T07:46:30;97232.47;;;13.46;49.83
61039;BME280;46919;45.816;3.104;2023-03-31T07:48:56;97241.47;;;13.52;50.00
61039;BME280;46919;45.816;3.104;2023-03-31T07:51:25;97232.31;;;13.58;49.76
61039;BME280;46919;45.816;3.104;2023-03-31T07:53:51;97220.59;;;13.57;49.26
61039;BME280;46919;45.816;3.104;2023-03-31T07:56:21;97214.63;;;13.55;49.47
61039;BME280;46919;45.816;3.104;2023-03-31T07:58:47;97212.53;;;13.68;49.71
61039;BME280;46919;45.816;3.104;2023-03-31T08:01:14;97238.41;;;13.75;49.55
61039;BME280;46919;45.816;3.104;2023-03-31T08:03:41;97224.56;;;13.77;47.96
61039;BME280;46919;45.816;3.104;2023-03-31T08:06:07;97236.50;;;13.76;47.10
61039;BME280;46919;45.816;3.104;2023-03-31T08:08:32;97243.00;;;13.75;46.86
61039;BME280;46919;45.816;3.104;2023-03-31T08:10:58;97223.28;;;13.90;46.81
61039;BME280;46919;45.816;3.104;2023-03-31T08:13:24;97255.63;;;13.97;46.82
61039;BME280;46919;45.816;3.104;2023-03-31T08:15:50;97247.97;;;13.88;47.16
61039;BME280;46919;45.816;3.104;2023-03-31T08:18:15;97214.88;;;13.91;47.39
61039;BME280;46919;45.816;3.104;2023-03-31T08:20:41;97211.94;;;14.03;47.97
61039;BME280;46919;45.816;3.104;2023-03-31T08:23:06;97224.75;;;14.13;48.08
61039;BME280;46919;45.816;3.104;2023-03-31T08:25:35;97227.00;;;14.31;48.31
61039;BME280;46919;45.816;3.104;2023-03-31T08:28:01;97203.69;;;14.46;48.31
61039;BME280;46919;45.816;3.104;2023-03-31T08:30:26;97218.06;;;14.41;47.82
61039;BME280;46919;45.816;3.104;2023-03-31T08:32:51;97231.66;;;14.31;47.24
61039;BME280;46919;45.816;3.104;2023-03-31T08:35:17;97200.88;;;14.20;46.31
61039;BME280;46919;45.816;3.104;2023-03-31T08:37:42;97195.97;;;14.22;46.12
61039;BME280;46919;45.816;3.104;2023-03-31T08:40:13;97189.50;;;14.28;46.19
61039;BME280;46919;45.816;3.104;2023-03-31T08:42:44;97211.78;;;14.30;45.79
61039;BME280;46919;45.816;3.104;2023-03-31T08:45:28;97180.56;;;14.38;45.96
61039;BME280;46919;45.816;3.104;2023-03-31T08:48:23;97214.84;;;14.44;46.04
61039;BME280;46919;45.816;3.104;2023-03-31T08:50:52;97207.78;;;14.43;45.22
61039;BME280;46919;45.816;3.104;2023-03-31T08:53:30;97213.75;;;14.45;44.79
61039;BME280;46919;45.816;3.104;2023-03-31T08:55:57;97203.41;;;14.47;45.26
61039;BME280;46919;45.816;3.104;2023-03-31T08:58:41;97204.22;;;14.43;44.36
61039;BME280;46919;45.816;3.104;2023-03-31T09:01:22;97209.13;;;14.41;43.93
61039;BME280;46919;45.816;3.104;2023-03-31T09:06:37;97209.22;;;14.66;44.83
61039;BME280;46919;45.816;3.104;2023-03-31T09:09:14;97204.31;;;14.68;45.19
61039;BME280;46919;45.816;3.104;2023-03-31T09:11:50;97234.00;;;14.75;43.72
61039;BME280;46919;45.816;3.104;2023-03-31T09:17:05;97224.25;;;14.84;43.32
61039;BME280;46919;45.816;3.104;2023-03-31T09:19:40;97225.88;;;14.91;43.73
61039;BME280;46919;45.816;3.104;2023-03-31T09:22:21;97231.56;;;14.84;43.17
61039;BME280;46919;45.816;3.104;2023-03-31T09:27:36;97216.09;;;15.05;43.16
61039;BME280;46919;45.816;3.104;2023-03-31T09:30:12;97228.88;;;15.04;42.19
61039;BME280;46919;45.816;3.104;2023-03-31T09:32:40;97200.59;;;15.00;42.56
61039;BME280;46919;45.816;3.104;2023-03-31T09:35:19;97202.22;;;15.22;42.74
61039;BME280;46919;45.816;3.104;2023-03-31T09:37:49;97255.06;;;15.31;42.34
61039;BME280;46919;45.816;3.104;2023-03-31T09:40:18;97216.09;;;15.26;42.13
61039;BME280;46919;45.816;3.104;2023-03-31T09:42:50;97230.81;;;15.50;42.35
61039;BME280;46919;45.816;3.104;2023-03-31T09:45:19;97225.66;;;15.59;42.12
61039;BME280;46919;45.816;3.104;2023-03-31T09:47:53;97242.81;;;15.60;42.13
61039;BME280;46919;45.816;3.104;2023-03-31T09:50:19;97244.19;;;15.42;42.76
61039;BME280;46919;45.816;3.104;2023-03-31T09:52:55;97245.81;;;15.32;42.72
61039;BME280;46919;45.816;3.104;2023-03-31T09:57:50;97233.28;;;15.26;42.61
61039;BME280;46919;45.816;3.104;2023-03-31T10:05:20;97256.13;;;15.25;42.72
61039;BME280;46919;45.816;3.104;2023-03-31T10:07:49;97318.69;;;14.99;45.91
61039;BME280;46919;45.816;3.104;2023-03-31T10:10:29;97349.03;;;14.23;58.76
61039;BME280;46919;45.816;3.104;2023-03-31T10:12:55;97311.50;;;13.50;62.07
61039;BME280;46919;45.816;3.104;2023-03-31T10:15:30;97309.72;;;13.33;63.06
61039;BME280;46919;45.816;3.104;2023-03-31T10:17:57;97312.75;;;12.65;66.69
61039;BME280;46919;45.816;3.104;2023-03-31T10:20:31;97334.56;;;11.81;72.91
61039;BME280;46919;45.816;3.104;2023-03-31T10:23:03;97311.06;;;11.18;82.20
61039;BME280;46919;45.816;3.104;2023-03-31T10:25:32;97331.38;;;10.92;86.50
61039;BME280;46919;45.816;3.104;2023-03-31T10:28:00;97332.28;;;10.57;88.54
61039;BME280;46919;45.816;3.104;2023-03-31T10:30:32;97336.41;;;10.24;90.81
61039;BME280;46919;45.816;3.104;2023-03-31T10:33:04;97329.63;;;9.98;94.58
61039;BME280;46919;45.816;3.104;2023-03-31T10:35:34;97341.22;;;9.75;97.17
61039;BME280;46919;45.816;3.104;2023-03-31T10:38:06;97300.03;;;9.56;98.97
61039;BME280;46919;45.816;3.104;2023-03-31T10:40:35;97305.53;;;9.49;100.00
61039;BME280;46919;45.816;3.104;2023-03-31T10:43:17;97291.94;;;9.56;100.00
61039;BME280;46919;45.816;3.104;2023-03-31T10:45:49;97277.88;;;9.66;100.00
61039;BME280;46919;45.816;3.104;2023-03-31T10:48:29;97272.81;;;10.05;100.00
61039;BME280;46919;45.816;3.104;2023-03-31T10:51:27;97264.44;;;10.42;100.00
61039;BME280;46919;45.816;3.104;2023-03-31T10:53:54;97252.56;;;10.83;98.92
61039;BME280;46919;45.816;3.104;2023-03-31T10:56:45;97264.16;;;11.13;87.03
61039;BME280;46919;45.816;3.104;2023-03-31T11:01:58;97237.28;;;11.57;91.08
61039;BME280;46919;45.816;3.104;2023-03-31T11:07:45;97229.56;;;12.22;86.19
61039;BME280;46919;45.816;3.104;2023-03-31T11:16:19;97222.25;;;12.99;77.17
61039;BME280;46919;45.816;3.104;2023-03-31T11:19:10;97229.63;;;13.31;78.87
61039;BME280;46919;45.816;3.104;2023-03-31T11:22:14;97232.22;;;13.20;81.20
61039;BME280;46919;45.816;3.104;2023-03-31T11:33:25;97212.75;;;13.29;77.36
61039;BME280;46919;45.816;3.104;2023-03-31T11:38:52;97258.19;;;13.11;76.23
61039;BME280;46919;45.816;3.104;2023-03-31T11:41:40;97285.97;;;12.47;87.18
61039;BME280;46919;45.816;3.104;2023-03-31T11:44:12;97266.63;;;11.99;84.44
61039;BME280;46919;45.816;3.104;2023-03-31T11:49:22;97240.28;;;12.61;86.35
61039;BME280;46919;45.816;3.104;2023-03-31T11:51:58;97227.44;;;13.00;85.81
61039;BME280;46919;45.816;3.104;2023-03-31T11:54:33;97216.97;;;13.14;76.39
61039;BME280;46919;45.816;3.104;2023-03-31T11:57:13;97193.66;;;13.13;67.23
61039;BME280;46919;45.816;3.104;2023-03-31T11:59:42;97216.84;;;12.99;73.51
61039;BME280;46919;45.816;3.104;2023-03-31T12:04:50;97211.06;;;12.90;63.01
61039;BME280;46919;45.816;3.104;2023-03-31T12:07:40;97213.25;;;13.20;71.39
61039;BME280;46919;45.816;3.104;2023-03-31T12:10:21;97207.91;;;13.63;72.56
61039;BME280;46919;45.816;3.104;2023-03-31T12:15:42;97209.63;;;14.32;64.27
61039;BME280;46919;45.816;3.104;2023-03-31T12:18:17;97190.38;;;14.44;64.58
61039;BME280;46919;45.816;3.104;2023-03-31T12:21:05;97178.09;;;14.31;56.59
61039;BME280;46919;45.816;3.104;2023-03-31T12:23:36;97179.84;;;14.00;60.65
61039;BME280;46919;45.816;3.104;2023-03-31T12:28:37;97203.38;;;13.79;61.44
61039;BME280;46919;45.816;3.104;2023-03-31T12:31:06;97213.19;;;13.43;63.05
61039;BME280;46919;45.816;3.104;2023-03-31T12:33:43;97198.63;;;13.27;58.87
61039;BME280;46919;45.816;3.104;2023-03-31T12:39:09;97201.72;;;13.08;59.75
61039;BME280;46919;45.816;3.104;2023-03-31T12:44:55;97177.13;;;13.52;60.92
61039;BME280;46919;45.816;3.104;2023-03-31T12:50:28;97167.13;;;14.84;51.59
61039;BME280;46919;45.816;3.104;2023-03-31T12:55:32;97162.69;;;15.81;51.11
61039;BME280;46919;45.816;3.104;2023-03-31T13:09:04;97136.56;;;16.45;48.63
61039;BME280;46919;45.816;3.104;2023-03-31T13:14:00;97109.34;;;16.75;48.85
61039;BME280;46919;45.816;3.104;2023-03-31T13:16:30;97105.84;;;16.69;49.21
61039;BME280;46919;45.816;3.104;2023-03-31T13:18:57;97100.41;;;16.69;47.20
61039;BME280;46919;45.816;3.104;2023-03-31T13:21:23;97101.00;;;16.61;46.92
61039;BME280;46919;45.816;3.104;2023-03-31T13:23:49;97091.13;;;17.05;46.00
61039;BME280;46919;45.816;3.104;2023-03-31T13:26:37;97079.53;;;16.89;43.21
61039;BME280;46919;45.816;3.104;2023-03-31T13:29:18;97084.88;;;17.04;44.83
61039;BME280;46919;45.816;3.104;2023-03-31T13:34:33;97046.22;;;17.93;43.87
61039;BME280;46919;45.816;3.104;2023-03-31T13:56:31;97137.91;;;14.49;51.35
61039;BME280;46919;45.816;3.104;2023-03-31T14:07:25;97361.34;;;10.50;83.07
61039;BME280;46919;45.816;3.104;2023-03-31T14:09:52;97291.97;;;8.53;96.75
61039;BME280;46919;45.816;3.104;2023-03-31T14:12:33;97272.28;;;7.97;100.00
61039;BME280;46919;45.816;3.104;2023-03-31T14:14:59;97269.00;;;7.51;100.00
61039;BME280;46919;45.816;3.104;2023-03-31T14:17:32;97284.38;;;7.44;100.00
61039;BME280;46919;45.816;3.104;2023-03-31T14:23:25;97213.78;;;7.05;100.00
61039;BME280;46919;45.816;3.104;2023-03-31T14:26:15;97161.94;;;7.23;100.00
61039;BME280;46919;45.816;3.104;2023-03-31T14:31:34;97202.72;;;7.38;100.00
61039;BME280;46919;45.816;3.104;2023-03-31T14:37:03;97217.22;;;7.37;100.00
61039;BME280;46919;45.816;3.104;2023-03-31T14:39:50;97229.25;;;7.35;100.00
61039;BME280;46919;45.816;3.104;2023-03-31T14:42:23;97214.50;;;7.37;100.00
61039;BME280;46919;45.816;3.104;2023-03-31T14:45:00;97201.63;;;7.46;100.00
61039;BME280;46919;45.816;3.104;2023-03-31T14:47:26;97174.06;;;7.51;100.00
61039;BME280;46919;45.816;3.104;2023-03-31T14:52:36;97104.81;;;7.83;100.00
61039;BME280;46919;45.816;3.104;2023-03-31T14:55:02;97077.13;;;8.25;100.00
61039;BME280;46919;45.816;3.104;2023-03-31T14:57:34;97068.69;;;8.63;100.00
61039;BME280;46919;45.816;3.104;2023-03-31T15:00:03;97065.31;;;9.03;100.00
61039;BME280;46919;45.816;3.104;2023-03-31T15:02:34;97061.53;;;9.28;100.00
61039;BME280;46919;45.816;3.104;2023-03-31T15:05:06;97051.09;;;9.32;100.00
61039;BME280;46919;45.816;3.104;2023-03-31T15:07:34;97062.34;;;9.29;100.00
61039;BME280;46919;45.816;3.104;2023-03-31T15:10:01;97083.91;;;9.29;100.00
61039;BME280;46919;45.816;3.104;2023-03-31T15:12:27;97115.69;;;9.15;100.00
61039;BME280;46919;45.816;3.104;2023-03-31T15:14:57;97092.97;;;9.11;100.00
61039;BME280;46919;45.816;3.104;2023-03-31T15:17:28;97076.88;;;9.28;100.00
61039;BME280;46919;45.816;3.104;2023-03-31T15:19:55;97074.97;;;9.52;100.00
61039;BME280;46919;45.816;3.104;2023-03-31T15:22:24;97080.81;;;9.60;100.00
61039;BME280;46919;45.816;3.104;2023-03-31T15:24:51;97095.75;;;9.28;100.00
61039;BME280;46919;45.816;3.104;2023-03-31T15:27:40;97116.75;;;9.25;100.00
61039;BME280;46919;45.816;3.104;2023-03-31T15:30:14;97093.41;;;9.43;100.00
61039;BME280;46919;45.816;3.104;2023-03-31T15:32:41;97102.16;;;9.74;100.00
61039;BME280;46919;45.816;3.104;2023-03-31T15:35:19;97090.88;;;9.77;100.00
61039;BME280;46919;45.816;3.104;2023-03-31T15:37:45;97093.75;;;9.87;100.00
61039;BME280;46919;45.816;3.104;2023-03-31T15:40:20;97067.16;;;10.08;100.00
61039;BME280;46919;45.816;3.104;2023-03-31T15:42:48;97119.97;;;10.15;99.44
61039;BME280;46919;45.816;3.104;2023-03-31T15:47:50;97102.06;;;10.26;90.61
61039;BME280;46919;45.816;3.104;2023-03-31T15:50:16;97137.66;;;10.23;97.23
61039;BME280;46919;45.816;3.104;2023-03-31T15:52:47;97143.44;;;10.15;89.43